Time;durP1;ratioP1;P1;durP2;ratioP2;P2;SDS_P1;SDS_P2;PMS_P1;PMS_P2;Temp;Humidity;BMP_temperature;BMP_pressure;BME280_temperature;BME280_humidity;BME280_pressure;Samples;Min_cycle;Max_cycle;Signal;HPM_P1;HPM_P2
2022/03/13 00:01:13;;;;;;;10.18;5.03;;;4.70;99.90;;;;;;6064813;23;20038;-86
2022/03/13 00:08:54;;;;;;;8.35;4.85;;;5.10;99.90;;;;;;6126859;23;20033;-86
2022/03/13 00:15:42;;;;;;;10.20;5.43;;;4.50;99.90;;;;;;6064606;23;20513;-86
2022/03/13 00:19:01;;;;;;;;;;;;;;;;;;;;;
2022/03/13 00:21:55;;;;;;;11.10;6.10;;;4.40;99.90;;;;;;6040018;23;20077;-85
2022/03/13 00:24:32;;;;;;;10.25;4.93;;;4.20;99.90;;;;;;6041361;23;20410;-85
2022/03/13 00:27:35;;;;;;;;;;;;;;;;;;;;;
2022/03/13 00:30:10;;;;;;;9.43;4.93;;;4.40;99.90;;;;;;6066710;23;20018;-85
2022/03/13 00:32:47;;;;;;;9.23;5.30;;;4.20;99.90;;;;;;6042121;23;20098;-85
2022/03/13 00:35:34;;;;;;;11.27;5.40;;;4.40;99.90;;;;;;6041953;23;20053;-85
2022/03/13 00:38:05;;;;;;;9.18;4.97;;;4.30;99.90;;;;;;6042667;23;20111;-85
2022/03/13 00:40:52;;;;;;;9.02;4.70;;;3.90;99.90;;;;;;5983727;23;20034;-86
2022/03/13 00:43:38;;;;;;;8.35;4.43;;;4.20;99.90;;;;;;6009335;23;20511;-86
2022/03/13 00:46:16;;;;;;;8.55;4.60;;;4.20;99.90;;;;;;6042330;23;20034;-86
2022/03/13 00:48:46;;;;;;;8.75;4.90;;;3.70;99.90;;;;;;6126488;23;20018;-85
2022/03/13 00:51:22;;;;;;;10.95;5.00;;;4.60;99.90;;;;;;6066311;23;20015;-85
2022/03/13 00:53:59;;;;;;;9.55;5.13;;;4.00;99.90;;;;;;6064821;23;20019;-86
2022/03/13 00:56:30;;;;;;;10.63;5.78;;;3.90;99.90;;;;;;6066340;23;20050;-85
2022/03/13 00:58:56;;;;;;;10.75;5.60;;;4.10;99.90;;;;;;6041603;23;20019;-86
2022/03/13 01:01:25;;;;;;;9.70;4.78;;;5.20;99.90;;;;;;6066586;23;20026;-86
2022/03/13 01:04:00;;;;;;;10.55;5.95;;;4.70;99.90;;;;;;6066252;23;20023;-85
2022/03/13 01:06:46;;;;;;;10.25;5.75;;;4.10;99.90;;;;;;6065995;23;20031;-86
2022/03/13 01:09:19;;;;;;;9.48;5.78;;;5.10;99.90;;;;;;6065143;23;20023;-85
2022/03/13 01:11:50;;;;;;;9.52;5.25;;;4.00;99.90;;;;;;6065954;23;20023;-86
2022/03/13 01:14:18;;;;;;;11.88;5.85;;;4.60;99.90;;;;;;6041923;23;20022;-85
2022/03/13 01:17:00;;;;;;;11.02;6.45;;;4.10;99.90;;;;;;6065947;23;20485;-85
2022/03/13 01:19:59;;;;;;;8.40;5.70;;;4.20;99.90;;;;;;6127742;23;20049;-85
2022/03/13 01:23:01;;;;;;;9.70;4.45;;;5.50;99.90;;;;;;6192847;23;20024;-85
2022/03/13 01:47:38;;;;;;;8.15;4.78;;;4.20;99.90;;;;;;6153410;23;20032;-85
2022/03/13 01:50:09;;;;;;;8.43;4.63;;;5.20;99.90;;;;;;6153350;23;20018;-86
2022/03/13 01:52:37;;;;;;;9.95;5.47;;;4.20;99.90;;;;;;6153133;23;20021;-85
2022/03/13 01:55:04;;;;;;;10.63;5.95;;;5.60;99.90;;;;;;6128545;23;20025;-82
2022/03/13 01:57:32;;;;;;;10.38;5.30;;;4.30;99.90;;;;;;6153294;23;20021;-86
2022/03/13 02:00:00;;;;;;;10.25;5.57;;;5.00;99.90;;;;;;6217447;23;20016;-86
2022/03/13 02:02:41;;;;;;;15.10;7.70;;;4.50;99.90;;;;;;6246272;23;20343;-85
2022/03/13 02:05:29;;;;;;;11.80;6.32;;;4.30;99.90;;;;;;6242817;23;20074;-85
2022/03/13 02:08:00;;;;;;;8.73;5.70;;;4.40;99.90;;;;;;6218991;23;20028;-85
2022/03/13 02:10:32;;;;;;;10.25;5.60;;;4.40;99.90;;;;;;6243930;22;20113;-82
2022/03/13 02:17:40;;;;;;;7.32;4.43;;;4.10;99.90;;;;;;6245925;23;20084;-83
2022/03/13 02:20:14;;;;;;;10.52;4.80;;;4.80;99.90;;;;;;6219013;23;20359;-82
2022/03/13 02:22:58;;;;;;;9.85;4.45;;;4.40;99.90;;;;;;6245302;23;20019;-84
2022/03/13 02:25:40;;;;;;;10.20;5.50;;;4.30;99.90;;;;;;6195434;23;20435;-84
2022/03/13 02:28:16;;;;;;;8.20;4.43;;;4.20;99.90;;;;;;6243160;23;20016;-83
2022/03/13 02:30:42;;;;;;;10.45;5.00;;;4.10;99.90;;;;;;6219016;23;20089;-84
2022/03/13 02:33:08;;;;;;;10.95;6.55;;;5.50;99.90;;;;;;6193015;23;20098;-85
2022/03/13 02:35:38;;;;;;;10.13;5.43;;;5.20;99.90;;;;;;6218875;23;20016;-84
2022/03/13 02:38:07;;;;;;;10.30;5.57;;;4.60;99.90;;;;;;6219430;23;20070;-85
2022/03/13 02:40:34;;;;;;;9.65;4.82;;;4.00;99.90;;;;;;6218611;23;20028;-85
2022/03/13 02:43:06;;;;;;;8.68;4.55;;;4.30;99.90;;;;;;6193204;23;20016;-84
2022/03/13 02:45:37;;;;;;;8.73;4.80;;;4.80;99.90;;;;;;6245412;23;20509;-82
2022/03/13 02:48:17;;;;;;;11.13;5.03;;;4.60;99.90;;;;;;6194123;23;20028;-84
2022/03/13 02:50:59;;;;;;;10.18;5.15;;;4.00;99.90;;;;;;6244776;23;20012;-85
2022/03/13 02:53:36;;;;;;;10.20;6.10;;;4.50;99.90;;;;;;6243909;23;20438;-86
2022/03/13 02:56:35;;;;;;;8.00;4.53;;;4.40;99.90;;;;;;6218096;23;20366;-85
2022/03/13 02:59:17;;;;;;;8.38;4.93;;;4.70;99.90;;;;;;6244272;23;20020;-85
2022/03/13 03:01:54;;;;;;;9.52;5.13;;;4.60;99.90;;;;;;6217568;23;20030;-86
2022/03/13 03:04:31;;;;;;;6.82;3.85;;;4.60;99.90;;;;;;6212441;23;20013;-85
2022/03/13 03:07:04;;;;;;;5.72;3.50;;;5.00;99.90;;;;;;6187356;23;20055;-85
2022/03/13 03:09:36;;;;;;;11.38;6.00;;;4.70;99.90;;;;;;6187455;23;20039;-85
2022/03/13 03:12:04;;;;;;;10.38;5.38;;;3.70;99.90;;;;;;6161613;23;20012;-85
2022/03/13 03:14:35;;;;;;;8.68;4.50;;;4.70;99.90;;;;;;6187943;23;20028;-85
2022/03/13 03:17:01;;;;;;;8.00;4.10;;;5.60;99.90;;;;;;6212209;23;20111;-86
2022/03/13 03:19:34;;;;;;;7.53;4.82;;;4.70;99.90;;;;;;6182520;23;20024;-85
2022/03/13 03:22:00;;;;;;;8.52;4.43;;;4.80;99.90;;;;;;6209862;23;20078;-84
2022/03/13 03:24:32;;;;;;;9.02;5.07;;;5.00;99.90;;;;;;6187517;23;20027;-85
2022/03/13 03:27:01;;;;;;;8.43;4.78;;;4.70;99.90;;;;;;6186856;23;20020;-86
2022/03/13 03:29:30;;;;;;;9.25;5.07;;;4.40;99.90;;;;;;6185526;23;20455;-83
2022/03/13 03:32:02;;;;;;;11.45;5.55;;;5.60;99.90;;;;;;6212385;23;20019;-85
2022/03/13 03:34:31;;;;;;;8.95;4.97;;;4.70;99.90;;;;;;6190574;23;20017;-85
2022/03/13 03:36:59;;;;;;;9.70;4.70;;;4.10;99.90;;;;;;6193476;23;20016;-85
2022/03/13 03:39:35;;;;;;;7.65;4.65;;;5.20;99.90;;;;;;6245164;23;20027;-86
2022/03/13 03:42:06;;;;;;;8.63;4.93;;;4.80;99.90;;;;;;6217739;23;20019;-86
2022/03/13 03:44:34;;;;;;;10.32;5.10;;;4.70;99.90;;;;;;6245254;23;20020;-85
2022/03/13 03:47:08;;;;;;;9.50;5.47;;;5.10;99.90;;;;;;6245507;23;20020;-85
2022/03/13 03:49:44;;;;;;;6.75;4.07;;;5.30;99.90;;;;;;6218444;23;20031;-86
2022/03/13 03:52:35;;;;;;;9.73;5.07;;;4.60;99.90;;;;;;6244818;23;20027;-86
2022/03/13 03:55:28;;;;;;;9.52;4.95;;;5.10;99.90;;;;;;6192224;23;20018;-85
2022/03/13 04:05:28;;;;;;;10.10;5.03;;;4.90;99.90;;;;;;6094483;23;20018;-86
2022/03/13 04:08:40;;;;;;;12.40;5.60;;;4.60;99.90;;;;;;6097669;23;20053;-86
2022/03/13 04:11:16;;;;;;;8.73;4.82;;;4.50;99.90;;;;;;6097302;23;20034;-86
2022/03/13 04:13:56;;;;;;;9.98;4.93;;;4.50;99.90;;;;;;6121641;23;20069;-86
2022/03/13 04:16:22;;;;;;;9.30;5.30;;;4.40;99.90;;;;;;6097639;23;20465;-86
2022/03/13 04:19:05;;;;;;;10.45;5.00;;;4.40;99.90;;;;;;6098369;23;20010;-86
2022/03/13 04:22:17;;;;;;;9.65;5.07;;;4.30;99.90;;;;;;6150747;23;20443;-86
2022/03/13 04:25:10;;;;;;;7.97;4.60;;;4.40;99.90;;;;;;6129557;23;20030;-85
2022/03/13 04:27:40;;;;;;;10.45;4.72;;;4.40;99.90;;;;;;6151923;23;20114;-86
2022/03/13 04:30:13;;;;;;;10.27;5.63;;;4.40;99.90;;;;;;6151228;23;20022;-85
2022/03/13 04:32:41;;;;;;;11.18;5.35;;;4.30;99.90;;;;;;6127177;23;20021;-85
2022/03/13 04:35:08;;;;;;;11.10;5.97;;;5.50;99.90;;;;;;6103015;23;20390;-86
2022/03/13 04:37:34;;;;;;;8.20;5.25;;;4.20;99.90;;;;;;6127495;23;20028;-85
2022/03/13 04:40:02;;;;;;;10.93;5.60;;;3.80;99.90;;;;;;6127109;23;20013;-86
2022/03/13 04:46:11;;;;;;;9.82;5.78;;;5.20;99.90;;;;;;6275584;22;20049;-85
2022/03/13 04:48:38;;;;;;;10.43;5.72;;;4.80;99.90;;;;;;6247779;22;20031;-86
2022/03/13 04:51:15;;;;;;;11.60;5.90;;;5.00;99.90;;;;;;6248489;22;20095;-86
2022/03/13 04:53:43;;;;;;;12.13;6.13;;;4.00;99.90;;;;;;6248147;22;20407;-85
2022/03/13 04:56:20;;;;;;;12.25;6.53;;;4.00;99.90;;;;;;6248279;22;20023;-86
2022/03/13 04:58:49;;;;;;;11.73;6.70;;;3.50;99.90;;;;;;6247731;22;20028;-86
2022/03/13 05:01:19;;;;;;;11.85;6.57;;;3.80;99.90;;;;;;6246945;22;20023;-86
2022/03/13 05:04:05;;;;;;;11.80;6.45;;;3.80;99.90;;;;;;6248394;22;20015;-85
2022/03/13 05:06:52;;;;;;;10.63;6.03;;;3.70;99.90;;;;;;6270862;22;20392;-86
2022/03/13 05:09:39;;;;;;;9.30;5.60;;;3.60;99.90;;;;;;6248560;22;20090;-85
2022/03/13 05:12:29;;;;;;;14.48;6.43;;;3.80;99.90;;;;;;6276783;22;20019;-85
2022/03/13 05:15:09;;;;;;;11.80;6.57;;;4.30;99.90;;;;;;6250160;22;20026;-86
2022/03/13 05:17:50;;;;;;;12.82;7.20;;;3.70;99.90;;;;;;6252784;22;20438;-86
2022/03/13 05:20:42;;;;;;;12.15;6.00;;;4.30;99.90;;;;;;6223928;22;20023;-86
2022/03/13 05:23:25;;;;;;;10.93;5.28;;;3.60;99.90;;;;;;6248014;22;20027;-86
2022/03/13 05:26:12;;;;;;;10.90;6.40;;;3.20;99.90;;;;;;6249754;22;20046;-85
2022/03/13 05:29:04;;;;;;;10.80;6.10;;;5.00;99.90;;;;;;6224910;22;20015;-85
2022/03/13 05:31:35;;;;;;;10.02;5.55;;;3.60;99.90;;;;;;6273787;22;20458;-85
2022/03/13 05:34:10;;;;;;;10.73;5.93;;;4.60;99.90;;;;;;6249142;22;20062;-83
2022/03/13 05:36:41;;;;;;;11.27;6.40;;;3.50;99.90;;;;;;6249140;22;20069;-85
2022/03/13 05:39:13;;;;;;;11.13;5.18;;;4.00;99.90;;;;;;6276830;22;20058;-84
2022/03/13 05:41:48;;;;;;;10.77;5.63;;;3.90;99.90;;;;;;6276983;22;20145;-82
2022/03/13 05:44:30;;;;;;;;;;;;;;;;;;;;;
2022/03/13 05:47:11;;;;;;;9.55;5.88;;;3.20;99.90;;;;;;6248723;22;20106;-82
2022/03/13 05:49:47;;;;;;;9.23;5.10;;;3.40;99.90;;;;;;6276970;22;20030;-82
2022/03/13 05:52:32;;;;;;;8.00;5.43;;;3.40;99.90;;;;;;6223582;22;20079;-83
2022/03/13 05:55:06;;;;;;;10.00;5.03;;;3.50;99.90;;;;;;6276024;22;20337;-82
2022/03/13 05:57:39;;;;;;;11.38;5.75;;;4.30;99.90;;;;;;6274596;22;20072;-82
2022/03/13 06:00:14;;;;;;;9.45;5.60;;;3.50;99.90;;;;;;6249417;22;20019;-82
2022/03/13 06:02:43;;;;;;;10.20;5.65;;;3.00;99.90;;;;;;6248156;22;20016;-82
2022/03/13 06:05:19;;;;;;;9.55;5.82;;;3.10;99.90;;;;;;6249411;22;20019;-83
2022/03/13 06:08:15;;;;;;;12.35;6.43;;;4.20;99.90;;;;;;6274153;22;20026;-85
2022/03/13 06:10:47;;;;;;;9.35;4.70;;;3.10;99.90;;;;;;6195411;22;20446;-83
2022/03/13 06:13:21;;;;;;;8.90;4.95;;;3.70;99.90;;;;;;6249140;22;20012;-83
2022/03/13 06:15:52;;;;;;;9.80;4.88;;;4.50;99.90;;;;;;6224652;22;20455;-82
2022/03/13 06:18:48;;;;;;;12.73;5.53;;;3.70;99.90;;;;;;6275192;22;20022;-82
2022/03/13 06:25:16;;;;;;;10.67;5.53;;;3.80;99.90;;;;;;6249093;22;20027;-83
2022/03/13 06:35:52;;;;;;;11.82;5.90;;;4.00;99.90;;;;;;5979800;24;20103;-82
2022/03/13 06:38:44;;;;;;;10.63;6.00;;;3.70;99.90;;;;;;5910959;24;20024;-82
2022/03/13 06:41:19;;;;;;;11.30;5.85;;;3.90;99.90;;;;;;5934422;24;20073;-84
2022/03/13 06:43:51;;;;;;;11.65;6.53;;;3.90;99.90;;;;;;5979207;23;20450;-82
2022/03/13 06:46:40;;;;;;;8.77;4.47;;;4.20;99.90;;;;;;5955740;24;20363;-83
2022/03/13 06:49:09;;;;;;;;;;;4.00;99.90;;;;;;5956598;24;20103;-84
2022/03/13 06:51:54;;;;;;;9.13;5.38;;;4.30;99.90;;;;;;5957169;23;19926;-83
2022/03/13 06:54:45;;;;;;;9.05;4.53;;;4.00;99.90;;;;;;5956284;24;20099;-83
2022/03/13 06:57:17;;;;;;;8.50;4.95;;;4.30;99.90;;;;;;5951784;23;20087;-85
2022/03/13 07:00:25;;;;;;;9.27;4.93;;;5.40;99.90;;;;;;5955439;24;20363;-85
2022/03/13 07:03:17;;;;;;;10.13;5.28;;;4.20;99.90;;;;;;5959872;24;20460;-83
2022/03/13 07:05:57;;;;;;;10.77;5.53;;;4.20;99.90;;;;;;6153538;23;20131;-84
2022/03/13 07:08:23;;;;;;;9.43;5.43;;;4.40;99.90;;;;;;6156972;23;20030;-84
2022/03/13 07:36:23;;;;;;;10.35;5.15;;;4.50;99.90;;;;;;6009168;23;20019;-84
2022/03/13 07:39:25;;;;;;;;;;;5.10;99.90;;;;;;5984729;23;20067;-85
2022/03/13 07:49:55;;;;;;;8.13;5.15;;;4.70;99.90;;;;;;6169855;23;20050;-86
2022/03/13 07:52:32;;;;;;;11.32;5.97;;;5.40;99.90;;;;;;6177559;23;20020;-86
2022/03/13 08:05:15;;;;;;;12.48;6.20;;;5.20;99.90;;;;;;6248169;23;20062;-86
2022/03/13 08:07:49;;;;;;;11.00;6.50;;;6.30;99.90;;;;;;6246804;23;20016;-85
2022/03/13 08:10:23;;;;;;;11.80;6.63;;;5.50;99.90;;;;;;6218795;23;20095;-86
2022/03/13 08:12:54;;;;;;;10.48;5.43;;;4.30;99.90;;;;;;6217890;23;20458;-85
2022/03/13 08:15:21;;;;;;;11.50;6.65;;;5.80;99.90;;;;;;6244480;23;20012;-85
2022/03/13 08:17:46;;;;;;;10.48;5.70;;;5.90;99.90;;;;;;6245251;22;20020;-83
2022/03/13 08:20:15;;;;;;;8.45;5.13;;;6.20;99.90;;;;;;6193395;23;20361;-85
2022/03/13 08:22:41;;;;;;;11.65;6.35;;;6.40;99.90;;;;;;6218917;23;20027;-85
2022/03/13 08:25:07;;;;;;;11.50;6.43;;;5.60;99.90;;;;;;6244939;23;20451;-85
2022/03/13 08:27:34;;;;;;;10.23;5.97;;;6.50;99.90;;;;;;6245365;23;20048;-84
2022/03/13 08:30:07;;;;;;;11.68;6.20;;;6.70;99.90;;;;;;6218027;23;20063;-85
2022/03/13 08:32:36;;;;;;;9.88;5.55;;;6.40;99.90;;;;;;6218940;23;20066;-85
2022/03/13 08:35:02;;;;;;;8.98;5.43;;;6.90;99.90;;;;;;6245366;23;20343;-85
2022/03/13 08:37:28;;;;;;;10.63;5.53;;;7.00;99.90;;;;;;6193135;23;20023;-83
2022/03/13 08:39:54;;;;;;;8.90;5.40;;;7.90;99.90;;;;;;6219358;23;20012;-85
2022/03/13 08:46:42;;;;;;;10.27;5.97;;;7.20;99.90;;;;;;6248603;23;20078;-84
2022/03/13 08:49:08;;;;;;;10.90;5.22;;;7.30;99.90;;;;;;6199657;23;20099;-86
2022/03/13 08:51:33;;;;;;;9.23;5.40;;;7.70;99.90;;;;;;6226191;23;20031;-82
2022/03/13 08:53:59;;;;;;;8.77;5.50;;;7.20;99.90;;;;;;6223335;23;20031;-86
2022/03/13 08:56:25;;;;;;;11.23;6.03;;;8.30;99.90;;;;;;6221003;23;20354;-85
2022/03/13 08:58:54;;;;;;;9.35;5.50;;;7.60;99.90;;;;;;6247331;23;20016;-85
2022/03/13 09:01:22;;;;;;;8.45;4.97;;;7.60;99.90;;;;;;6247034;23;20012;-83
2022/03/13 09:03:48;;;;;;;10.55;5.93;;;7.60;99.90;;;;;;6220069;23;20020;-85
2022/03/13 09:06:14;;;;;;;10.48;5.72;;;7.90;99.90;;;;;;6219977;23;20081;-85
2022/03/13 09:08:42;;;;;;;11.27;5.00;;;8.70;99.90;;;;;;6219908;23;20052;-85
2022/03/13 09:11:09;;;;;;;9.57;5.07;;;8.20;99.90;;;;;;6219904;23;20016;-84
2022/03/13 09:13:38;;;;;;;8.23;5.05;;;8.40;99.90;;;;;;6219782;23;20052;-85
2022/03/13 09:16:04;;;;;;;9.32;5.05;;;9.60;99.90;;;;;;6247299;23;20016;-84
2022/03/13 09:18:34;;;;;;;8.40;4.75;;;8.70;99.90;;;;;;6220044;23;20069;-85
2022/03/13 09:21:00;;;;;;;7.10;4.45;;;9.10;99.90;;;;;;6247183;23;20016;-84
2022/03/13 09:23:27;;;;;;;9.40;4.85;;;8.70;99.90;;;;;;6246648;23;20020;-85
2022/03/13 09:25:53;;;;;;;9.25;4.95;;;9.20;99.90;;;;;;6246767;23;20035;-86
2022/03/13 09:28:20;;;;;;;9.55;4.82;;;8.80;99.90;;;;;;6246342;23;20020;-86
2022/03/13 09:30:46;;;;;;;8.75;4.60;;;8.90;99.90;;;;;;6247321;23;20019;-84
2022/03/13 09:33:12;;;;;;;8.75;4.68;;;9.60;99.90;;;;;;6246475;23;20343;-86
2022/03/13 09:35:39;;;;;;;10.38;5.75;;;9.30;99.90;;;;;;6219947;23;20020;-85
2022/03/13 09:38:05;;;;;;;10.13;5.80;;;9.50;99.90;;;;;;6246832;23;20020;-84
2022/03/13 09:40:34;;;;;;;10.30;5.47;;;9.40;99.90;;;;;;6219541;23;20111;-85
2022/03/13 09:43:04;;;;;;;11.73;6.43;;;9.60;99.90;;;;;;6220417;23;20095;-85
2022/03/13 09:45:30;;;;;;;11.65;5.88;;;9.60;99.90;;;;;;6219457;23;20091;-84
2022/03/13 09:47:56;;;;;;;10.60;6.07;;;9.90;99.90;;;;;;6246632;22;20109;-85
2022/03/13 09:50:22;;;;;;;8.20;5.30;;;10.10;99.90;;;;;;6218258;23;20030;-85
2022/03/13 09:52:48;;;;;;;9.65;5.78;;;10.20;99.90;;;;;;6245950;23;20055;-85
2022/03/13 09:55:15;;;;;;;8.90;5.68;;;10.00;99.90;;;;;;6194361;23;20035;-85
2022/03/13 09:57:43;;;;;;;12.73;6.07;;;11.00;99.90;;;;;;6212367;23;20097;-89
2022/03/13 10:00:14;;;;;;;9.85;5.50;;;10.80;99.90;;;;;;6215070;23;20440;-85
2022/03/13 10:02:41;;;;;;;11.68;6.45;;;10.90;99.90;;;;;;6240002;23;20016;-85
2022/03/13 10:05:15;;;;;;;9.27;5.20;;;11.10;99.90;;;;;;6246580;23;20062;-85
2022/03/13 10:08:29;;;;;;;9.77;5.57;;;11.30;99.90;;;;;;6218848;23;20016;-84
2022/03/13 10:10:57;;;;;;;9.80;5.43;;;11.40;99.60;;;;;;6219149;23;20057;-85
2022/03/13 10:13:40;;;;;;;10.77;6.45;;;11.40;98.10;;;;;;6246169;23;20020;-84
2022/03/13 10:16:20;;;;;;;13.30;6.47;;;11.60;99.10;;;;;;6246404;23;20069;-85
2022/03/13 10:18:46;;;;;;;9.40;5.65;;;11.70;99.00;;;;;;6246070;23;20016;-85
2022/03/13 10:21:16;;;;;;;9.50;5.88;;;11.80;97.40;;;;;;6246468;23;20038;-85
2022/03/13 10:23:43;;;;;;;8.20;5.50;;;12.10;99.30;;;;;;6246359;23;20005;-88
2022/03/13 10:26:09;;;;;;;8.30;4.78;;;12.10;97.60;;;;;;6245946;23;20458;-86
2022/03/13 10:28:40;;;;;;;8.38;5.18;;;12.20;97.70;;;;;;6246005;23;20024;-85
2022/03/13 10:31:13;;;;;;;8.85;4.78;;;12.90;97.10;;;;;;6245815;23;20451;-84
2022/03/13 10:33:44;;;;;;;9.45;5.60;;;12.50;97.60;;;;;;6219313;23;20059;-85
2022/03/13 10:36:37;;;;;;;7.85;4.20;;;12.70;99.00;;;;;;6245875;23;20149;-85
2022/03/13 10:39:09;;;;;;;9.07;4.90;;;13.10;97.40;;;;;;6246052;23;20465;-84
2022/03/13 10:41:47;;;;;;;9.07;5.20;;;13.10;95.90;;;;;;6219724;23;20095;-85
2022/03/13 10:44:25;;;;;;;8.35;4.55;;;13.20;97.90;;;;;;6245952;23;20027;-84
2022/03/13 10:47:01;;;;;;;10.63;5.28;;;13.30;96.00;;;;;;6245947;23;20451;-85
2022/03/13 10:49:41;;;;;;;10.55;4.65;;;13.50;95.60;;;;;;6245626;23;20066;-87
2022/03/13 10:52:31;;;;;;;8.05;4.63;;;13.60;94.60;;;;;;6246198;23;20012;-84
2022/03/13 10:55:24;;;;;;;8.57;4.85;;;13.80;96.50;;;;;;6218847;23;20374;-85
2022/03/13 10:57:52;;;;;;;7.90;5.10;;;14.30;93.10;;;;;;6261550;22;20442;-85
2022/03/13 11:00:20;;;;;;;8.90;5.55;;;14.20;94.20;;;;;;6250089;22;20012;-84
2022/03/13 11:02:46;;;;;;;8.32;4.80;;;14.20;92.10;;;;;;6276370;22;20015;-85
2022/03/13 11:05:11;;;;;;;12.18;6.63;;;14.20;92.10;;;;;;6276672;22;20022;-84
2022/03/13 11:07:37;;;;;;;10.50;5.95;;;14.20;92.90;;;;;;6275397;22;20022;-86
2022/03/13 11:10:06;;;;;;;9.75;4.88;;;14.30;91.10;;;;;;6276269;22;20386;-83
2022/03/13 11:12:34;;;;;;;13.10;5.78;;;14.30;90.80;;;;;;6275465;22;20003;-85
2022/03/13 11:15:01;;;;;;;8.05;4.75;;;14.30;89.20;;;;;;6276290;22;20019;-85
2022/03/13 11:17:30;;;;;;;11.63;5.88;;;14.50;87.80;;;;;;6270117;22;20023;-85
2022/03/13 11:19:58;;;;;;;9.63;5.88;;;14.70;88.70;;;;;;6276249;22;20008;-86
2022/03/13 11:22:25;;;;;;;12.27;6.35;;;14.50;88.80;;;;;;6276279;22;20020;-85
2022/03/13 11:24:55;;;;;;;10.73;5.47;;;14.70;88.00;;;;;;6276266;22;20011;-86
2022/03/13 11:27:24;;;;;;;10.65;5.45;;;14.80;86.00;;;;;;6248757;22;20347;-85
2022/03/13 11:29:52;;;;;;;10.02;6.10;;;15.00;83.60;;;;;;6248872;22;20062;-86
2022/03/13 11:32:40;;;;;;;12.98;6.78;;;15.00;86.70;;;;;;6275936;22;20495;-85
2022/03/13 11:35:18;;;;;;;9.80;5.78;;;15.00;83.70;;;;;;6275974;22;20386;-86
2022/03/13 11:37:46;;;;;;;11.88;6.05;;;15.00;80.70;;;;;;6275513;22;20438;-87
2022/03/13 11:40:14;;;;;;;11.27;5.55;;;15.20;83.00;;;;;;6275962;22;20323;-86
2022/03/13 11:43:06;;;;;;;10.80;5.88;;;15.40;81.50;;;;;;6276153;22;20047;-86
2022/03/13 11:45:34;;;;;;;11.02;5.88;;;15.50;80.70;;;;;;6248144;22;20023;-84
2022/03/13 11:48:13;;;;;;;10.52;5.32;;;15.50;79.90;;;;;;6276284;22;20023;-85
2022/03/13 11:51:00;;;;;;;11.38;6.35;;;15.60;79.50;;;;;;6248919;22;20040;-85
2022/03/13 11:53:30;;;;;;;11.32;6.72;;;15.60;80.40;;;;;;6248476;22;20015;-84
2022/03/13 11:56:09;;;;;;;11.00;5.95;;;15.50;78.20;;;;;;6275673;22;20023;-88
2022/03/13 11:58:41;;;;;;;12.20;7.07;;;15.80;80.50;;;;;;6275437;22;20023;-83
2022/03/13 12:01:20;;;;;;;10.07;6.32;;;15.70;80.40;;;;;;6275976;22;20043;-85
2022/03/13 12:04:02;;;;;;;9.18;6.03;;;15.60;84.40;;;;;;6275847;22;20023;-84
2022/03/13 12:06:44;;;;;;;10.02;6.85;;;15.60;85.90;;;;;;6275974;22;20016;-86
2022/03/13 12:09:28;;;;;;;9.50;6.13;;;15.70;84.10;;;;;;6248418;22;20054;-88
2022/03/13 12:12:09;;;;;;;12.65;7.03;;;15.70;85.10;;;;;;6248150;22;20102;-89
2022/03/13 12:15:05;;;;;;;10.07;6.03;;;15.50;84.80;;;;;;6276143;22;20102;-89
2022/03/13 12:17:44;;;;;;;10.50;6.45;;;15.50;84.70;;;;;;6275943;22;20016;-88
2022/03/13 12:20:24;;;;;;;10.18;5.95;;;15.50;83.20;;;;;;6275545;22;20399;-84
2022/03/13 12:23:00;;;;;;;13.80;6.13;;;15.60;82.10;;;;;;6275823;22;20008;-85
2022/03/13 12:25:30;;;;;;;10.50;6.32;;;15.70;83.90;;;;;;6248946;22;20047;-87
2022/03/13 12:27:56;;;;;;;10.05;6.25;;;15.70;80.50;;;;;;6275002;22;20019;-89
2022/03/13 12:30:29;;;;;;;10.45;6.68;;;15.80;82.40;;;;;;6249025;22;20016;-88
2022/03/13 12:33:36;;;;;;;10.70;6.30;;;15.70;78.30;;;;;;6275772;22;20024;-86
2022/03/13 12:36:11;;;;;;;10.82;7.15;;;15.70;77.20;;;;;;6096303;23;20018;-89
2022/03/13 12:38:42;;;;;;;9.00;5.60;;;15.60;77.20;;;;;;6123027;23;20053;-84
2022/03/13 12:41:09;;;;;;;9.15;5.90;;;15.70;80.10;;;;;;6097939;23;20512;-90
2022/03/13 12:43:59;;;;;;;11.80;6.45;;;15.80;75.20;;;;;;6122402;23;20057;-85
2022/03/13 12:46:27;;;;;;;8.50;5.50;;;15.60;77.00;;;;;;6122707;23;20081;-84
2022/03/13 12:48:58;;;;;;;9.07;6.18;;;15.70;78.70;;;;;;6097779;23;20018;-83
2022/03/13 12:51:34;;;;;;;11.70;6.78;;;15.80;76.10;;;;;;6122707;23;20109;-84
2022/03/13 12:54:04;;;;;;;10.18;6.07;;;15.70;75.90;;;;;;6098040;23;20079;-83
2022/03/13 12:56:30;;;;;;;8.95;5.60;;;15.80;74.40;;;;;;6098000;23;20093;-84
2022/03/13 12:58:58;;;;;;;11.20;6.90;;;15.60;72.80;;;;;;6122366;23;20060;-83
2022/03/13 13:01:23;;;;;;;11.63;6.05;;;15.60;72.00;;;;;;6097792;23;20029;-84
2022/03/13 13:03:53;;;;;;;8.88;5.40;;;15.70;74.50;;;;;;6097973;23;20512;-85
2022/03/13 13:06:50;;;;;;;11.52;6.60;;;15.70;73.60;;;;;;6098004;23;20026;-85
2022/03/13 13:09:31;;;;;;;11.25;6.45;;;15.70;70.20;;;;;;5987989;23;20053;-85
2022/03/13 13:11:58;;;;;;;11.65;6.75;;;15.70;69.60;;;;;;6070324;23;20512;-86
2022/03/13 13:14:28;;;;;;;9.52;5.65;;;15.80;72.40;;;;;;6123043;23;20022;-86
2022/03/13 13:17:11;;;;;;;11.23;6.35;;;15.80;71.10;;;;;;6123326;23;20017;-87
2022/03/13 13:19:47;;;;;;;8.70;5.57;;;15.80;70.60;;;;;;6098114;23;20097;-85
2022/03/13 13:22:46;;;;;;;10.60;6.30;;;15.90;70.40;;;;;;6122324;23;20029;-83
2022/03/13 13:25:17;;;;;;;10.25;6.07;;;15.90;68.10;;;;;;6122634;23;20089;-83
2022/03/13 13:27:51;;;;;;;11.18;6.53;;;15.90;68.00;;;;;;6073849;23;20362;-85
2022/03/13 13:30:29;;;;;;;10.90;6.43;;;16.00;67.60;;;;;;6097736;23;20070;-84
2022/03/13 13:33:09;;;;;;;11.23;6.65;;;15.90;67.90;;;;;;6099351;23;20033;-84
2022/03/13 13:35:49;;;;;;;11.23;6.20;;;15.80;68.20;;;;;;6123873;23;20068;-85
2022/03/13 13:38:20;;;;;;;10.70;6.45;;;15.90;69.80;;;;;;6124257;23;20021;-85
2022/03/13 13:41:11;;;;;;;8.27;6.10;;;15.90;68.80;;;;;;6041981;23;20375;-84
2022/03/13 13:43:52;;;;;;;12.07;6.65;;;16.00;68.90;;;;;;6065706;23;20122;-87
2022/03/13 13:46:31;;;;;;;11.27;7.03;;;16.00;69.00;;;;;;6108682;23;20393;-83
2022/03/13 13:49:05;;;;;;;12.35;6.00;;;15.90;65.40;;;;;;6183413;23;20021;-87
2022/03/13 13:51:38;;;;;;;9.73;6.05;;;16.10;69.60;;;;;;6183295;23;20013;-84
2022/03/13 13:54:17;;;;;;;10.15;5.93;;;16.10;68.60;;;;;;6158427;23;20145;-82
2022/03/13 13:56:59;;;;;;;8.90;5.57;;;16.20;66.40;;;;;;6182520;23;20025;-83
2022/03/13 13:59:48;;;;;;;11.38;6.45;;;16.20;65.70;;;;;;6134800;23;20529;-87
2022/03/13 14:02:21;;;;;;;10.30;5.45;;;16.20;65.40;;;;;;6158801;23;20067;-82
2022/03/13 14:04:51;;;;;;;10.00;6.18;;;16.10;65.00;;;;;;6158428;23;20032;-84
2022/03/13 14:07:18;;;;;;;9.73;6.03;;;16.10;65.70;;;;;;6183413;23;20020;-84
2022/03/13 14:09:44;;;;;;;10.85;6.18;;;16.00;65.20;;;;;;6158573;23;20530;-84
2022/03/13 14:12:14;;;;;;;9.85;6.00;;;16.10;65.00;;;;;;6225892;23;20070;-85
2022/03/13 14:14:40;;;;;;;10.73;5.65;;;16.20;63.90;;;;;;6246662;23;20024;-84
2022/03/13 14:17:08;;;;;;;11.25;6.22;;;16.30;65.20;;;;;;6219483;23;20012;-85
2022/03/13 14:19:38;;;;;;;10.30;6.18;;;16.20;65.30;;;;;;6246605;23;20055;-82
2022/03/13 14:22:06;;;;;;;8.57;5.75;;;16.30;64.90;;;;;;6246512;23;20023;-83
2022/03/13 14:24:35;;;;;;;9.88;5.93;;;16.30;64.80;;;;;;6219353;23;20434;-85
2022/03/13 14:27:03;;;;;;;9.57;6.03;;;16.30;64.80;;;;;;6194856;23;20012;-84
2022/03/13 14:29:29;;;;;;;10.48;6.18;;;16.30;63.80;;;;;;6194034;23;20023;-84
2022/03/13 14:31:55;;;;;;;11.00;5.88;;;16.30;64.30;;;;;;6245826;23;20087;-84
2022/03/13 14:34:21;;;;;;;10.93;6.90;;;16.10;66.20;;;;;;6194610;23;20024;-84
2022/03/13 14:36:51;;;;;;;9.93;5.97;;;16.30;62.50;;;;;;6219231;23;20509;-85
2022/03/13 14:39:17;;;;;;;11.70;6.43;;;16.20;62.40;;;;;;6246637;23;20050;-85
2022/03/13 14:41:43;;;;;;;10.68;6.25;;;16.10;63.30;;;;;;6244411;23;20347;-89
2022/03/13 14:44:12;;;;;;;10.60;6.13;;;15.90;64.50;;;;;;6263328;22;20078;-84
2022/03/13 14:46:38;;;;;;;11.30;6.53;;;15.90;65.50;;;;;;6276990;22;20055;-84
2022/03/13 14:49:04;;;;;;;10.32;6.15;;;15.80;63.70;;;;;;6276980;22;20015;-83
2022/03/13 14:51:29;;;;;;;12.40;6.53;;;15.70;64.40;;;;;;6276414;22;20381;-84
2022/03/13 14:54:01;;;;;;;10.27;6.22;;;15.60;63.50;;;;;;6231233;22;20023;-86
2022/03/13 14:56:28;;;;;;;10.15;5.75;;;15.50;64.60;;;;;;6276335;22;20443;-85
2022/03/13 14:59:03;;;;;;;12.35;7.30;;;15.40;64.80;;;;;;6249366;22;20494;-89
2022/03/13 15:01:28;;;;;;;11.10;7.05;;;15.40;64.10;;;;;;6223203;22;20098;-84
2022/03/13 15:03:55;;;;;;;11.43;6.70;;;15.20;66.50;;;;;;6276510;22;20041;-84
2022/03/13 15:06:23;;;;;;;8.63;4.78;;;15.20;67.40;;;;;;6276267;22;20389;-83
2022/03/13 15:08:48;;;;;;;9.63;5.30;;;15.00;67.70;;;;;;6249266;22;20023;-85
2022/03/13 15:11:19;;;;;;;9.68;5.38;;;15.10;68.10;;;;;;6276202;22;20381;-84
2022/03/13 15:13:56;;;;;;;10.32;5.68;;;15.10;67.30;;;;;;6224065;22;20015;-83
2022/03/13 15:16:42;;;;;;;10.38;5.88;;;15.00;69.90;;;;;;6222609;22;20447;-83